Time;durP1;ratioP1;P1;durP2;ratioP2;P2;SDS_P1;SDS_P2;PMS_P1;PMS_P2;Temp;Humidity;BMP_temperature;BMP_pressure;BME280_temperature;BME280_humidity;BME280_pressure;Samples;Min_cycle;Max_cycle;Signal;HPM_P1;HPM_P2
2022/07/11 00:02:05;;;;;;;3.57;3.27;;;;;;;15.77;100.00;100979.31;5024964;28;20195;-75
2022/07/11 00:04:32;;;;;;;3.73;3.37;;;;;;;15.78;100.00;100973.22;5022389;28;20179;-74
2022/07/11 00:06:58;;;;;;;3.27;2.97;;;;;;;15.82;100.00;100970.50;5006842;28;20218;-77
2022/07/11 00:09:24;;;;;;;3.80;3.17;;;;;;;15.87;100.00;100970.47;5005730;28;20185;-74
2022/07/11 00:11:49;;;;;;;3.77;3.57;;;;;;;15.92;100.00;100970.38;5028908;28;20175;-77
2022/07/11 00:14:16;;;;;;;3.97;3.67;;;;;;;15.96;100.00;100965.06;5025815;28;20730;-76
2022/07/11 00:16:41;;;;;;;4.20;3.90;;;;;;;16.02;100.00;100960.59;5027642;28;20587;-75
2022/07/11 00:19:06;;;;;;;3.73;3.47;;;;;;;16.08;100.00;100963.06;5025873;28;20179;-75
2022/07/11 00:21:36;;;;;;;3.60;3.30;;;;;;;16.12;100.00;100956.91;5024205;28;20604;-76
2022/07/11 00:24:02;;;;;;;3.53;3.27;;;;;;;16.11;100.00;100956.03;5022026;28;20266;-75
2022/07/11 00:26:28;;;;;;;2.97;2.77;;;;;;;16.10;100.00;100950.84;5021211;28;20258;-75
2022/07/11 00:28:53;;;;;;;3.27;3.07;;;;;;;16.09;100.00;100951.75;5004413;28;20176;-75
2022/07/11 00:31:19;;;;;;;3.13;2.67;;;;;;;16.09;100.00;100949.13;5025358;28;21057;-75
2022/07/11 00:33:44;;;;;;;2.80;2.60;;;;;;;16.07;100.00;100949.16;5026126;28;21090;-77
2022/07/11 00:36:10;;;;;;;2.60;2.40;;;;;;;16.09;100.00;100959.56;5026438;28;20631;-76
2022/07/11 00:38:36;;;;;;;3.17;2.97;;;;;;;16.09;100.00;100952.63;5026701;28;20620;-76
2022/07/11 00:41:02;;;;;;;3.47;2.63;;;;;;;16.11;100.00;100945.59;5009406;28;20180;-75
2022/07/11 00:43:36;;;;;;;2.77;2.57;;;;;;;16.16;100.00;100940.28;5026788;28;20170;-75
2022/07/11 00:46:03;;;;;;;3.57;3.27;;;;;;;16.20;100.00;100941.91;5024697;28;20773;-75
2022/07/11 00:48:28;;;;;;;3.20;3.00;;;;;;;16.24;100.00;100943.56;5024397;28;21166;-76
2022/07/11 00:50:54;;;;;;;2.50;2.30;;;;;;;16.27;100.00;100940.03;5025519;28;20185;-74
2022/07/11 00:53:20;;;;;;;3.10;2.90;;;;;;;16.28;100.00;100942.63;5023462;28;20204;-75
2022/07/11 00:55:47;;;;;;;2.90;2.70;;;;;;;16.28;100.00;100941.75;5026031;28;20215;-74
2022/07/11 00:58:13;;;;;;;2.93;2.73;;;;;;;16.28;100.00;100940.00;5023108;28;20202;-73
2022/07/11 01:00:40;;;;;;;3.10;2.90;;;;;;;16.28;100.00;100940.00;5025668;28;20590;-75
2022/07/11 01:03:06;;;;;;;2.90;2.70;;;;;;;16.27;100.00;100940.91;5006628;28;20191;-74
2022/07/11 01:05:32;;;;;;;3.47;3.17;;;;;;;16.27;100.00;100935.69;5008109;28;20951;-76
2022/07/11 01:07:58;;;;;;;2.90;2.70;;;;;;;16.27;100.00;100942.63;5026685;28;20194;-75
2022/07/11 01:10:23;;;;;;;3.00;2.80;;;;;;;16.27;100.00;100933.06;5008622;28;20180;-76
2022/07/11 01:12:49;;;;;;;2.80;2.60;;;;;;;16.27;100.00;100930.44;5007114;28;20562;-75
2022/07/11 01:15:15;;;;;;;3.27;3.00;;;;;;;16.28;100.00;100932.16;5005655;28;21954;-75
2022/07/11 01:17:40;;;;;;;3.20;3.00;;;;;;;16.29;100.00;100928.66;5020462;28;20287;-74
2022/07/11 01:20:06;;;;;;;3.13;2.93;;;;;;;16.32;100.00;100927.72;5022312;28;20181;-74
2022/07/11 01:22:37;;;;;;;3.47;3.20;;;;;;;16.34;100.00;100925.06;5026851;28;20182;-75
2022/07/11 01:25:02;;;;;;;3.50;3.20;;;;;;;16.35;100.00;100927.66;5002526;28;20263;-75
2022/07/11 01:27:28;;;;;;;3.00;2.80;;;;;;;16.36;100.00;100918.06;5021915;28;20306;-75
2022/07/11 01:29:54;;;;;;;3.40;3.10;;;;;;;16.37;100.00;100918.06;5002040;28;20669;-75
2022/07/11 01:32:21;;;;;;;3.37;3.17;;;;;;;16.38;100.00;100917.16;5022297;28;20278;-78
2022/07/11 01:34:46;;;;;;;3.53;3.23;;;;;;;16.41;100.00;100916.22;5006666;28;20202;-75
2022/07/11 01:37:12;;;;;;;3.30;3.10;;;;;;;16.42;100.00;100924.00;5025022;28;20291;-75
2022/07/11 01:39:37;;;;;;;3.40;3.20;;;;;;;16.41;100.00;100922.28;5025283;28;20275;-75
2022/07/11 01:42:03;;;;;;;3.40;3.20;;;;;;;16.43;100.00;100919.66;5003409;28;20286;-75
2022/07/11 01:44:28;;;;;;;3.20;3.00;;;;;;;16.41;100.00;100914.44;5023128;28;20186;-75
2022/07/11 01:46:53;;;;;;;3.20;3.00;;;;;;;16.42;100.00;100910.09;5023701;28;20217;-76
2022/07/11 01:49:19;;;;;;;3.40;3.20;;;;;;;16.42;100.00;100910.09;5007667;28;20176;-75
2022/07/11 01:51:45;;;;;;;3.57;3.27;;;;;;;16.41;100.00;100917.06;5026047;28;20187;-75
2022/07/11 01:54:10;;;;;;;3.27;3.07;;;;;;;16.42;100.00;100910.94;5020461;28;20201;-76
2022/07/11 01:56:35;;;;;;;3.33;3.10;;;;;;;16.41;100.00;100905.75;5021184;28;20199;-74
2022/07/11 01:59:01;;;;;;;3.10;2.90;;;;;;;16.39;100.00;100913.66;5004227;28;20217;-74
2022/07/11 02:01:26;;;;;;;2.90;2.70;;;;;;;16.37;100.00;100907.59;5022707;28;20273;-76
2022/07/11 02:03:53;;;;;;;3.13;2.83;;;;;;;16.37;100.00;100911.94;5004563;28;20660;-74
2022/07/11 02:06:19;;;;;;;3.20;3.00;;;;;;;16.35;100.00;100912.00;5003380;28;20211;-74
2022/07/11 02:08:44;;;;;;;3.47;3.20;;;;;;;16.36;100.00;100915.44;5018874;28;20190;-75
2022/07/11 02:11:10;;;;;;;3.20;3.00;;;;;;;16.36;100.00;100915.44;5016520;28;20721;-75
2022/07/11 02:13:35;;;;;;;3.40;3.20;;;;;;;16.36;100.00;100910.22;5016234;28;20215;-73
2022/07/11 02:16:02;;;;;;;3.40;3.10;;;;;;;16.34;100.00;100912.88;5021633;28;20215;-74
2022/07/11 02:18:28;;;;;;;3.60;3.40;;;;;;;16.35;100.00;100908.50;5022196;28;20266;-75
2022/07/11 02:20:53;;;;;;;3.37;3.17;;;;;;;16.35;100.00;100912.00;5023254;28;21754;-77
2022/07/11 02:23:20;;;;;;;3.03;2.83;;;;;;;16.35;100.00;100905.91;5008554;28;20184;-74
2022/07/11 02:25:46;;;;;;;3.17;2.97;;;;;;;16.34;100.00;100907.66;5023316;28;20194;-75
2022/07/11 02:28:12;;;;;;;2.90;2.60;;;;;;;16.34;100.00;100912.00;5024247;28;20184;-75
2022/07/11 02:30:39;;;;;;;3.20;3.00;;;;;;;16.32;100.00;100913.81;5008091;28;20191;-75
2022/07/11 02:33:07;;;;;;;3.27;3.07;;;;;;;16.31;100.00;100907.72;5023249;28;20209;-75
2022/07/11 02:35:33;;;;;;;3.10;2.90;;;;;;;16.30;100.00;100909.50;5021138;28;20196;-75
2022/07/11 02:37:59;;;;;;;2.83;2.63;;;;;;;16.30;100.00;100908.63;5025710;28;20187;-75
2022/07/11 02:40:26;;;;;;;3.10;2.90;;;;;;;16.30;100.00;100906.88;5018700;28;20663;-75
2022/07/11 02:42:52;;;;;;;2.83;2.63;;;;;;;16.30;100.00;100911.22;5005103;28;20191;-74
2022/07/11 02:45:17;;;;;;;2.80;2.60;;;;;;;16.27;100.00;100914.78;5026298;28;20181;-75
2022/07/11 02:47:43;;;;;;;2.97;2.77;;;;;;;16.28;100.00;100913.88;5021810;28;20257;-75
2022/07/11 02:50:11;;;;;;;2.90;2.70;;;;;;;16.28;100.00;100908.66;5026428;28;20183;-74
2022/07/11 02:52:37;;;;;;;3.00;2.80;;;;;;;16.27;100.00;100917.41;5024452;28;20559;-74
2022/07/11 02:55:03;;;;;;;2.90;2.70;;;;;;;16.29;100.00;100912.13;5027425;28;20187;-74
2022/07/11 02:57:28;;;;;;;2.87;2.67;;;;;;;16.29;100.00;100914.72;5009659;28;20204;-75
2022/07/11 02:59:54;;;;;;;2.77;2.57;;;;;;;16.27;100.00;100920.00;5024725;28;20183;-75
2022/07/11 03:02:19;;;;;;;2.80;2.60;;;;;;;16.27;100.00;100911.28;5027522;28;20261;-75
2022/07/11 03:04:45;;;;;;;3.07;2.87;;;;;;;16.24;100.00;100916.63;5026773;28;20214;-75
2022/07/11 03:07:10;;;;;;;2.73;2.53;;;;;;;16.22;100.00;100911.41;5008987;28;20206;-74
2022/07/11 03:09:36;;;;;;;2.83;2.63;;;;;;;16.20;100.00;100910.56;5028565;28;20182;-75
2022/07/11 03:12:01;;;;;;;2.50;2.37;;;;;;;16.18;100.00;100912.38;5028562;28;20726;-75
2022/07/11 03:14:27;;;;;;;3.27;2.97;;;;;;;16.17;100.00;100912.41;5007081;28;20215;-74
2022/07/11 03:16:52;;;;;;;2.80;2.60;;;;;;;16.12;100.00;100913.34;5022271;28;20208;-72
2022/07/11 03:19:18;;;;;;;2.80;2.60;;;;;;;16.09;100.00;100909.97;5027337;28;20179;-73
2022/07/11 03:21:43;;;;;;;3.00;2.80;;;;;;;16.06;100.00;100910.91;5008839;28;20188;-75
2022/07/11 03:24:08;;;;;;;2.90;2.70;;;;;;;16.02;100.00;100911.00;5004450;28;20538;-76
2022/07/11 03:26:34;;;;;;;2.70;2.50;;;;;;;15.98;100.00;100918.03;5005142;28;20257;-73
2022/07/11 03:28:59;;;;;;;3.07;2.87;;;;;;;15.94;100.00;100914.63;5024898;28;20207;-72
2022/07/11 03:31:25;;;;;;;2.93;2.73;;;;;;;15.91;100.00;100913.84;5007050;28;20218;-73
2022/07/11 03:33:50;;;;;;;2.87;2.63;;;;;;;15.87;100.00;100917.41;5007065;28;20180;-75
2022/07/11 03:36:16;;;;;;;3.20;2.90;;;;;;;15.81;100.00;100918.34;5021770;28;20204;-76
2022/07/11 03:38:41;;;;;;;2.90;2.70;;;;;;;15.78;100.00;100919.28;5024390;28;20186;-75
2022/07/11 03:41:06;;;;;;;2.70;2.50;;;;;;;15.73;100.00;100921.13;5026218;28;20648;-75
2022/07/11 03:43:32;;;;;;;2.80;2.50;;;;;;;15.71;100.00;100915.06;5025903;28;20203;-75
2022/07/11 03:45:57;;;;;;;4.67;2.90;;;;;;;15.70;100.00;100918.56;5009352;28;20257;-74
2022/07/11 03:48:23;;;;;;;3.03;2.83;;;;;;;15.67;100.00;100913.41;5020769;28;20599;-73
2022/07/11 03:50:49;;;;;;;2.83;2.63;;;;;;;15.65;100.00;100918.66;5013850;28;20183;-74
2022/07/11 03:53:14;;;;;;;2.83;2.63;;;;;;;15.63;100.00;100917.84;5010303;28;20188;-74
2022/07/11 03:55:40;;;;;;;2.90;2.70;;;;;;;15.62;100.00;100916.09;5008460;28;20604;-74
2022/07/11 03:58:06;;;;;;;3.00;2.80;;;;;;;15.61;100.00;100921.38;5022886;28;20189;-73
2022/07/11 04:00:32;;;;;;;2.87;2.67;;;;;;;15.59;100.00;100920.53;5023742;28;20190;-74
2022/07/11 04:02:58;;;;;;;2.50;2.40;;;;;;;15.61;100.00;100916.16;5007602;28;20193;-73
2022/07/11 04:05:24;;;;;;;2.80;2.60;;;;;;;15.62;100.00;100915.25;5023458;28;20187;-74
2022/07/11 04:07:50;;;;;;;2.70;2.50;;;;;;;15.62;100.00;100910.91;5024683;28;20203;-75
2022/07/11 04:10:18;;;;;;;2.30;2.20;;;;;;;15.67;100.00;100913.41;5027823;28;20255;-75
2022/07/11 04:12:44;;;;;;;2.60;2.37;;;;;;;15.73;100.00;100915.91;5026399;28;20189;-74
2022/07/11 04:15:10;;;;;;;2.53;2.33;;;;;;;15.79;100.00;100909.69;5028048;28;20353;-75
2022/07/11 04:17:37;;;;;;;2.47;2.33;;;;;;;15.80;100.00;100907.06;5018970;28;20203;-75
2022/07/11 04:20:03;;;;;;;2.90;2.70;;;;;;;15.81;100.00;100902.69;5020617;28;20199;-75
2022/07/11 04:22:29;;;;;;;2.60;2.43;;;;;;;15.81;100.00;100913.13;5026929;28;20168;-74
2022/07/11 04:24:54;;;;;;;3.00;2.50;;;;;;;15.83;100.00;100904.38;5026392;28;20678;-75
2022/07/11 04:27:20;;;;;;;2.63;2.43;;;;;;;15.84;100.00;100906.09;5026396;28;20215;-75
2022/07/11 04:29:45;;;;;;;2.77;2.57;;;;;;;15.85;100.00;100904.38;5024953;28;20193;-74
2022/07/11 04:32:11;;;;;;;2.97;2.60;;;;;;;15.85;100.00;100899.16;5009223;28;20201;-74
2022/07/11 04:34:36;;;;;;;2.70;2.50;;;;;;;15.89;100.00;100902.56;5026577;28;20199;-73
2022/07/11 04:37:02;;;;;;;2.60;2.40;;;;;;;15.95;100.00;100905.06;5024752;28;20596;-74
2022/07/11 04:39:27;;;;;;;2.70;2.50;;;;;;;16.01;100.00;100907.53;5008274;28;20631;-75
2022/07/11 04:41:52;;;;;;;2.40;2.30;;;;;;;16.08;100.00;100911.72;5027561;28;20394;-74
2022/07/11 04:44:18;;;;;;;2.60;2.50;;;;;;;16.27;100.00;100908.69;5027568;28;20515;-74
2022/07/11 04:46:43;;;;;;;2.80;2.60;;;;;;;16.52;100.00;100910.75;5005041;28;20253;-74
2022/07/11 04:49:09;;;;;;;2.70;2.50;;;;;;;16.64;100.00;100912.22;5022443;28;20181;-75
2022/07/11 04:51:36;;;;;;;2.87;2.67;;;;;;;16.70;100.00;100906.81;5027375;28;20187;-75
2022/07/11 04:54:01;;;;;;;2.70;2.50;;;;;;;16.77;100.00;100911.84;5022178;28;20201;-74
2022/07/11 04:56:27;;;;;;;2.83;2.63;;;;;;;16.88;100.00;100911.59;5025658;28;20207;-74
2022/07/11 04:58:52;;;;;;;2.47;2.37;;;;;;;17.11;100.00;100912.78;5021908;28;20187;-76
2022/07/11 05:01:18;;;;;;;2.60;2.40;;;;;;;17.55;100.00;100909.88;5027961;28;20183;-75
2022/07/11 05:03:44;;;;;;;2.43;2.30;;;;;;;17.98;99.01;100908.66;5027339;28;20677;-75
2022/07/11 05:06:10;;;;;;;2.73;2.53;;;;;;;18.12;97.78;100903.00;5008782;28;20228;-74
2022/07/11 05:08:38;;;;;;;2.97;2.77;;;;;;;18.42;96.52;100912.56;5025516;28;20271;-74
2022/07/11 05:11:04;;;;;;;2.70;2.50;;;;;;;19.12;94.57;100910.28;5031622;28;20719;-75
2022/07/11 05:13:29;;;;;;;2.50;2.27;;;;;;;19.79;92.51;100906.16;5024107;28;20940;-74
2022/07/11 05:15:55;;;;;;;3.13;2.57;;;;;;;20.71;89.70;100917.44;5027107;28;20212;-73
2022/07/11 05:18:20;;;;;;;3.83;2.70;;;;;;;21.59;86.79;100914.63;5027002;28;20183;-74
2022/07/11 05:20:46;;;;;;;13.50;3.80;;;;;;;22.69;83.80;100914.75;5019770;28;20180;-75
2022/07/11 05:23:11;;;;;;;6.70;3.30;;;;;;;23.86;80.00;100912.25;5027002;28;20596;-75
2022/07/11 05:25:36;;;;;;;3.07;2.77;;;;;;;24.93;76.54;100915.03;5028136;28;20639;-75
2022/07/11 05:28:02;;;;;;;3.10;2.47;;;;;;;25.95;74.10;100909.72;5008883;28;20175;-74
2022/07/11 05:30:27;;;;;;;2.67;2.20;;;;;;;26.77;71.56;100910.59;5026676;28;20187;-76
2022/07/11 05:32:52;;;;;;;2.83;2.40;;;;;;;27.44;69.50;100903.41;5010214;28;20183;-76
2022/07/11 05:35:18;;;;;;;4.60;2.73;;;;;;;28.12;67.60;100909.25;5022201;28;20191;-76
2022/07/11 05:37:43;;;;;;;4.27;2.63;;;;;;;28.64;66.17;100911.63;5001091;28;20196;-75
2022/07/11 05:40:09;;;;;;;7.90;3.23;;;;;;;28.64;65.54;100911.63;5019174;28;20422;-75
2022/07/11 05:42:35;;;;;;;6.30;2.40;;;;;;;28.80;65.44;100910.47;5021989;28;20207;-76
2022/07/11 05:45:00;;;;;;;8.90;3.03;;;;;;;29.16;64.23;100914.78;5008516;28;20183;-76
2022/07/11 05:47:25;;;;;;;4.50;2.60;;;;;;;29.48;62.66;100902.59;5021736;28;20191;-75
2022/07/11 05:49:51;;;;;;;4.30;2.50;;;;;;;29.12;63.14;100912.47;5020140;28;20210;-75
2022/07/11 05:52:17;;;;;;;2.53;2.13;;;;;;;28.15;64.65;100900.16;5015623;28;20709;-76
2022/07/11 05:54:42;;;;;;;4.63;2.57;;;;;;;27.56;65.55;100909.69;5028252;28;20206;-74
2022/07/11 05:57:07;;;;;;;8.90;3.37;;;;;;;27.45;66.02;100910.44;5007356;28;20702;-74
2022/07/11 05:59:35;;;;;;;13.17;3.93;;;;;;;27.21;67.40;100907.66;5022493;28;20183;-73
2022/07/11 06:02:02;;;;;;;9.93;3.70;;;;;;;27.42;67.09;100915.09;5026160;28;20187;-74
2022/07/11 06:04:27;;;;;;;10.70;3.70;;;;;;;27.82;66.68;100912.28;5020970;28;20257;-73
2022/07/11 06:06:53;;;;;;;16.30;4.83;;;;;;;28.04;65.86;100913.41;5028748;28;20237;-74
2022/07/11 06:09:18;;;;;;;9.07;3.20;;;;;;;27.49;66.97;100911.94;5025375;28;20272;-75
2022/07/11 06:11:43;;;;;;;7.67;3.37;;;;;;;27.22;67.13;100914.69;5024926;28;20184;-73
2022/07/11 06:14:09;;;;;;;6.77;2.70;;;;;;;26.79;67.87;100923.78;5031229;28;20206;-75
2022/07/11 06:16:35;;;;;;;4.60;2.47;;;;;;;26.45;67.62;100913.59;5009556;28;20202;-74
2022/07/11 06:19:01;;;;;;;2.73;2.20;;;;;;;25.77;68.83;100914.41;5024204;28;20187;-75
2022/07/11 06:21:27;;;;;;;4.50;2.63;;;;;;;25.24;70.20;100915.00;5008835;28;20560;-76
2022/07/11 06:23:52;;;;;;;5.67;2.77;;;;;;;25.06;71.00;100914.28;5001713;28;20307;-75
2022/07/11 06:26:18;;;;;;;2.77;2.53;;;;;;;25.40;70.69;100904.28;5023731;28;20555;-75
2022/07/11 06:28:44;;;;;;;4.20;2.50;;;;;;;26.07;69.51;100910.75;5022005;28;20191;-76
2022/07/11 06:31:09;;;;;;;2.60;2.40;;;;;;;26.56;68.26;100910.22;5030803;28;20175;-76
2022/07/11 06:33:35;;;;;;;2.53;2.20;;;;;;;27.31;67.42;100907.88;5025458;28;20207;-75
2022/07/11 06:36:02;;;;;;;2.33;1.93;;;;;;;27.98;65.65;100915.53;5023845;28;20728;-76
2022/07/11 06:38:31;;;;;;;2.27;2.07;;;;;;;27.84;65.69;100913.84;5027734;28;20207;-76
2022/07/11 06:40:56;;;;;;;3.67;2.30;;;;;;;27.45;65.95;100921.06;5009370;28;20183;-76
2022/07/11 06:43:22;;;;;;;3.73;1.93;;;;;;;27.21;66.58;100926.25;5029385;28;20185;-76
2022/07/11 06:45:48;;;;;;;2.60;2.40;;;;;;;27.35;66.17;100925.31;5030474;28;20176;-75
2022/07/11 06:48:13;;;;;;;2.80;2.10;;;;;;;27.19;66.29;100914.88;5026739;28;20182;-75
2022/07/11 06:50:39;;;;;;;2.07;1.83;;;;;;;27.64;65.93;100917.94;5010157;28;20629;-75
2022/07/11 06:53:04;;;;;;;3.23;2.10;;;;;;;28.43;64.06;100916.75;5028517;28;20180;-75
2022/07/11 06:55:31;;;;;;;2.93;1.97;;;;;;;29.41;62.34;100904.91;5028879;28;20196;-72
2022/07/11 06:57:56;;;;;;;2.47;1.80;;;;;;;30.12;61.39;100901.03;5029435;28;20198;-76
2022/07/11 07:00:22;;;;;;;2.47;2.20;;;;;;;30.49;59.88;100910.47;5012373;28;20179;-75
2022/07/11 07:02:47;;;;;;;4.20;1.93;;;;;;;30.59;59.32;100903.41;5010796;28;22057;-74
2022/07/11 07:05:12;;;;;;;3.57;2.33;;;;;;;30.63;58.78;100904.00;5029814;28;20181;-74
2022/07/11 07:07:38;;;;;;;2.33;1.97;;;;;;;31.03;58.98;100903.25;5012536;28;20571;-75
2022/07/11 07:10:04;;;;;;;3.00;1.73;;;;;;;30.89;58.40;100900.91;5029384;28;20179;-76
2022/07/11 07:12:30;;;;;;;1.60;1.50;;;;;;;30.83;59.09;100899.63;5028708;28;20210;-75
2022/07/11 07:14:55;;;;;;;9.90;2.77;;;;;;;30.90;58.76;100898.13;5030539;28;20270;-75
2022/07/11 07:17:21;;;;;;;3.90;1.80;;;;;;;31.00;58.51;100895.53;5027744;28;20199;-74
2022/07/11 07:19:46;;;;;;;1.70;1.60;;;;;;;31.15;58.29;100899.56;5011421;28;20172;-76
2022/07/11 07:22:16;;;;;;;2.53;2.07;;;;;;;31.20;58.15;100901.84;5010471;28;20191;-76
2022/07/11 07:24:41;;;;;;;1.77;1.50;;;;;;;31.35;58.12;100896.13;5028316;28;20192;-76
2022/07/11 07:27:07;;;;;;;2.43;1.50;;;;;;;31.48;58.17;100897.56;5026292;28;20749;-75
2022/07/11 07:29:32;;;;;;;1.90;1.60;;;;;;;31.40;57.60;100888.53;5028627;28;20207;-75
2022/07/11 07:31:59;;;;;;;4.60;1.70;;;;;;;31.38;57.26;100901.22;5029017;28;20180;-76
2022/07/11 07:34:25;;;;;;;1.77;1.42;;;;;;;31.39;57.17;100900.19;5026460;28;20258;-74
2022/07/11 07:36:50;;;;;;;2.73;1.70;;;;;;;31.22;57.30;100893.66;5010319;28;20199;-76
2022/07/11 07:39:16;;;;;;;2.45;1.60;;;;;;;31.20;57.25;100893.81;5027257;28;20262;-76
2022/07/11 07:41:42;;;;;;;2.92;1.80;;;;;;;31.31;57.63;100898.22;5028189;28;20176;-75
2022/07/11 07:44:07;;;;;;;1.93;1.67;;;;;;;31.18;57.98;100893.09;5026929;28;20563;-74
2022/07/11 07:46:33;;;;;;;2.70;1.77;;;;;;;31.12;57.92;100886.44;5009530;28;20291;-76
2022/07/11 07:48:59;;;;;;;1.73;1.60;;;;;;;30.94;57.95;100888.84;5026813;28;20274;-76
2022/07/11 07:51:25;;;;;;;2.20;1.50;;;;;;;30.71;57.77;100890.81;5029610;28;20281;-76
2022/07/11 07:53:50;;;;;;;1.87;1.60;;;;;;;30.36;58.71;100894.63;5027993;28;20195;-76
2022/07/11 07:56:16;;;;;;;5.77;2.40;;;;;;;30.07;59.69;100881.91;5004567;28;20676;-74
2022/07/11 07:58:41;;;;;;;3.27;1.87;;;;;;;29.89;59.90;100881.53;5029315;28;20175;-76
2022/07/11 08:03:51;;;;;;;1.77;1.67;;;;;;;29.68;60.31;100877.00;5024351;28;20194;-76
2022/07/11 08:06:17;;;;;;;2.73;1.70;;;;;;;29.61;60.25;100876.63;5023732;28;20200;-75
2022/07/11 08:08:42;;;;;;;2.30;2.10;;;;;;;29.37;60.69;100870.59;5028815;28;20192;-76
2022/07/11 08:11:08;;;;;;;2.43;2.07;;;;;;;29.16;60.59;100876.63;5028832;28;20208;-75
2022/07/11 08:13:33;;;;;;;2.07;1.87;;;;;;;28.88;61.30;100873.47;5025793;28;20196;-75
2022/07/11 08:15:58;;;;;;;2.30;1.90;;;;;;;28.56;61.68;100868.75;5026636;28;20244;-75
2022/07/11 08:18:24;;;;;;;3.37;2.23;;;;;;;27.92;62.79;100872.56;5027486;28;20604;-75
2022/07/11 08:20:49;;;;;;;5.10;2.87;;;;;;;26.81;64.48;100878.56;5026981;28;20191;-74
2022/07/11 08:23:15;;;;;;;2.87;2.43;;;;;;;26.17;66.39;100880.91;5028016;28;20670;-75
2022/07/11 08:25:40;;;;;;;24.67;5.80;;;;;;;26.26;66.57;100883.91;5007716;28;20808;-75
2022/07/11 08:28:06;;;;;;;8.03;3.33;;;;;;;25.95;67.34;100884.09;5024334;28;20278;-75
2022/07/11 08:30:31;;;;;;;5.23;2.70;;;;;;;25.99;67.50;100876.78;5028282;28;20191;-74
2022/07/11 08:32:57;;;;;;;2.57;2.30;;;;;;;26.11;67.46;100873.34;5006807;28;20234;-76
2022/07/11 08:35:23;;;;;;;4.93;3.50;;;;;;;26.07;66.79;100876.28;5027431;28;20211;-76
2022/07/11 08:37:48;;;;;;;3.03;2.73;;;;;;;26.22;66.47;100871.81;5010892;28;20195;-75
2022/07/11 08:40:13;;;;;;;2.57;2.30;;;;;;;26.24;65.66;100875.22;5008823;28;20288;-76
2022/07/11 08:42:44;;;;;;;5.00;2.70;;;;;;;26.32;65.99;100868.44;5009538;28;20923;-76
2022/07/11 08:45:16;;;;;;;3.50;2.80;;;;;;;26.11;64.98;100876.00;5025691;28;20266;-75
2022/07/11 08:47:43;;;;;;;2.70;2.50;;;;;;;26.05;65.72;100873.75;5027296;28;20199;-76
2022/07/11 08:50:11;;;;;;;2.97;2.40;;;;;;;26.50;65.11;100878.78;5026217;28;20674;-75
2022/07/11 08:52:37;;;;;;;2.83;2.30;;;;;;;26.93;65.30;100869.75;5025230;28;20900;-74
2022/07/11 08:55:07;;;;;;;2.40;2.20;;;;;;;27.16;64.46;100862.81;5025638;28;20252;-74
2022/07/11 08:57:36;;;;;;;2.30;2.10;;;;;;;27.18;64.12;100860.91;5021110;28;20215;-75
2022/07/11 09:00:05;;;;;;;3.93;2.20;;;;;;;27.19;63.95;100859.09;5004269;28;20648;-75
2022/07/11 09:02:33;;;;;;;2.13;2.00;;;;;;;27.36;64.14;100852.59;5026739;28;20647;-75
2022/07/11 09:05:00;;;;;;;2.40;2.17;;;;;;;27.66;63.93;100851.41;5007877;28;20784;-76
2022/07/11 09:07:26;;;;;;;14.33;2.97;;;;;;;27.88;63.34;100852.47;5007125;28;20207;-75
2022/07/11 09:09:51;;;;;;;5.47;2.60;;;;;;;27.77;63.56;100863.88;5026859;28;20183;-75
2022/07/11 09:12:18;;;;;;;5.00;2.60;;;;;;;27.50;64.17;100867.59;5024689;28;20187;-75
2022/07/11 09:14:48;;;;;;;4.13;2.27;;;;;;;27.39;63.66;100858.53;5009350;28;20207;-75
2022/07/11 09:17:13;;;;;;;3.23;2.50;;;;;;;27.19;64.53;100857.31;5009074;28;20306;-76
2022/07/11 09:19:39;;;;;;;2.50;2.30;;;;;;;26.92;64.83;100860.91;5025429;28;20294;-76
2022/07/11 09:27:45;;;;;;;3.67;2.17;;;;;;;26.30;65.83;100869.50;5021337;28;20639;-74
2022/07/11 09:30:26;;;;;;;3.77;2.37;;;;;;;26.44;66.01;100876.56;5006124;28;20182;-76
2022/07/11 09:33:05;;;;;;;7.23;2.73;;;;;;;26.50;65.18;100878.78;5030387;28;20203;-74
2022/07/11 09:35:34;;;;;;;3.67;2.60;;;;;;;26.62;65.35;100871.81;5008971;28;20579;-75
2022/07/11 09:38:04;;;;;;;3.00;2.43;;;;;;;26.83;64.57;100871.34;5009645;28;20271;-75
2022/07/11 09:40:31;;;;;;;3.37;2.27;;;;;;;26.99;63.94;100866.66;5021087;28;20207;-76
2022/07/11 09:42:59;;;;;;;3.57;2.57;;;;;;;26.88;64.29;100864.75;5026701;28;20179;-75
2022/07/11 09:45:26;;;;;;;4.80;2.87;;;;;;;27.01;64.71;100862.06;5023648;28;20175;-74
2022/07/11 09:47:55;;;;;;;3.80;3.20;;;;;;;26.77;64.65;100864.63;5009402;28;20198;-75
2022/07/11 09:50:23;;;;;;;2.53;1.87;;;;;;;26.69;64.23;100864.28;5016521;28;20189;-76
2022/07/11 09:53:07;;;;;;;2.50;2.27;;;;;;;26.63;64.56;100871.69;5027320;28;20651;-75
2022/07/11 09:55:38;;;;;;;31.50;4.90;;;;;;;26.46;64.98;100872.84;5009086;28;20713;-75
2022/07/11 09:58:05;;;;;;;3.43;2.77;;;;;;;26.58;64.16;100860.53;5025858;28;20224;-75
2022/07/11 10:00:32;;;;;;;2.60;2.40;;;;;;;26.67;64.45;100861.72;5021940;28;20211;-75
2022/07/11 10:03:00;;;;;;;2.20;2.10;;;;;;;26.95;63.96;100874.94;5027121;28;20179;-75
2022/07/11 10:05:25;;;;;;;2.20;2.00;;;;;;;26.89;63.69;100871.75;5024876;28;20179;-74
2022/07/11 10:07:51;;;;;;;2.30;2.10;;;;;;;27.06;63.21;100864.44;5026592;28;20216;-75
2022/07/11 10:10:17;;;;;;;2.93;2.10;;;;;;;27.34;62.89;100857.19;5025908;28;20191;-74
2022/07/11 10:12:49;;;;;;;2.23;2.00;;;;;;;27.51;62.60;100864.84;5025941;28;20179;-74
2022/07/11 10:15:18;;;;;;;2.43;2.23;;;;;;;27.55;62.42;100860.13;5025394;28;20204;-75
2022/07/11 10:18:02;;;;;;;2.50;2.13;;;;;;;27.52;62.75;100865.66;5005970;28;20199;-76
2022/07/11 10:20:39;;;;;;;1.90;1.80;;;;;;;27.30;62.84;100861.00;5023166;28;20190;-74
2022/07/11 10:23:22;;;;;;;2.20;2.10;;;;;;;27.28;63.20;100855.81;5026568;28;20182;-76
2022/07/11 10:26:09;;;;;;;3.37;2.10;;;;;;;27.32;63.61;100854.59;5005643;28;20568;-75
2022/07/11 10:28:52;;;;;;;3.93;2.10;;;;;;;27.33;63.41;100855.47;5005314;28;20637;-75
2022/07/11 10:31:19;;;;;;;4.57;2.83;;;;;;;27.05;64.42;100857.41;5020757;28;20254;-74
2022/07/11 10:34:42;;;;;;;2.70;2.50;;;;;;;26.85;64.50;100864.94;5009079;28;20195;-75
2022/07/11 10:37:04;;;;;;;2.70;2.30;;;;;;;26.42;65.43;100851.91;5019178;28;20219;-74
2022/07/11 10:39:30;;;;;;;3.27;2.53;;;;;;;26.15;66.27;100853.63;5025635;28;20266;-75
2022/07/11 10:41:57;;;;;;;4.67;2.60;;;;;;;25.99;66.51;100855.56;5026139;28;20199;-74
2022/07/11 10:44:24;;;;;;;3.20;2.50;;;;;;;26.17;66.59;100854.41;5023640;28;20191;-74
2022/07/11 10:46:51;;;;;;;9.23;3.20;;;;;;;26.32;65.68;100860.47;5019557;28;20227;-75
2022/07/11 10:49:37;;;;;;;3.03;2.00;;;;;;;26.07;65.20;100860.38;5024950;28;20865;-75
2022/07/11 10:52:07;;;;;;;5.20;2.60;;;;;;;26.12;65.43;100856.50;5026477;28;20539;-74
2022/07/11 10:54:42;;;;;;;3.27;2.53;;;;;;;26.05;65.76;100844.56;5024258;28;20234;-73
2022/07/11 10:57:23;;;;;;;2.60;2.40;;;;;;;26.30;65.74;100854.44;5017803;28;20223;-74
2022/07/11 11:00:03;;;;;;;2.50;2.30;;;;;;;26.69;64.98;100846.56;5025036;28;20654;-74
2022/07/11 11:02:30;;;;;;;3.30;2.50;;;;;;;26.84;63.95;100849.13;5003385;28;20194;-74
2022/07/11 11:05:03;;;;;;;2.30;2.10;;;;;;;27.02;64.03;100847.84;5018929;28;20180;-75
2022/07/11 11:07:31;;;;;;;3.57;2.50;;;;;;;27.16;63.57;100849.53;5020894;28;20217;-75
2022/07/11 11:09:58;;;;;;;2.50;2.30;;;;;;;27.15;63.53;100842.53;5018365;28;20246;-74
2022/07/11 11:13:04;;;;;;;18.17;3.57;;;;;;;27.12;63.50;100849.88;5028184;28;20190;-74
2022/07/11 11:15:54;;;;;;;8.37;3.10;;;;;;;27.19;63.57;100841.38;5010761;28;20385;-74
2022/07/11 11:18:25;;;;;;;3.33;2.10;;;;;;;27.55;62.85;100838.88;5008856;28;20188;-76
2022/07/11 11:21:02;;;;;;;4.37;2.43;;;;;;;27.44;63.32;100836.94;5029945;28;20192;-75
2022/07/11 11:23:38;;;;;;;2.10;1.97;;;;;;;27.44;63.49;100838.78;5022708;28;20266;-74
2022/07/11 11:26:06;;;;;;;3.03;2.10;;;;;;;27.62;63.52;100825.97;5029156;28;20217;-74
2022/07/11 11:28:32;;;;;;;3.37;2.30;;;;;;;27.88;63.32;100833.84;5026444;28;20364;-75
2022/07/11 11:31:00;;;;;;;2.37;2.17;;;;;;;27.84;62.58;100836.72;5011024;28;20705;-74